sensor_id;sensor_type;location;lat;lon;timestamp;P1;durP1;ratioP1;P2;durP2;ratioP2
19301;SDS011;9785;59.362;12.152;2023-07-29T00:01:41;5.20;;;3.10;;
19301;SDS011;9785;59.362;12.152;2023-07-29T00:04:09;8.87;;;3.20;;
19301;SDS011;9785;59.362;12.152;2023-07-29T00:06:38;9.43;;;3.67;;
19301;SDS011;9785;59.362;12.152;2023-07-29T00:09:07;9.60;;;3.63;;
19301;SDS011;9785;59.362;12.152;2023-07-29T00:11:35;6.93;;;3.97;;
19301;SDS011;9785;59.362;12.152;2023-07-29T00:14:04;9.57;;;3.70;;
19301;SDS011;9785;59.362;12.152;2023-07-29T00:16:34;6.33;;;3.60;;
19301;SDS011;9785;59.362;12.152;2023-07-29T00:19:03;7.30;;;3.80;;
19301;SDS011;9785;59.362;12.152;2023-07-29T00:21:31;8.47;;;3.93;;
19301;SDS011;9785;59.362;12.152;2023-07-29T00:24:00;8.00;;;4.10;;
19301;SDS011;9785;59.362;12.152;2023-07-29T00:26:28;7.80;;;3.43;;
19301;SDS011;9785;59.362;12.152;2023-07-29T00:28:57;4.00;;;3.37;;
19301;SDS011;9785;59.362;12.152;2023-07-29T00:31:26;6.50;;;2.97;;
19301;SDS011;9785;59.362;12.152;2023-07-29T00:33:56;13.87;;;3.03;;
19301;SDS011;9785;59.362;12.152;2023-07-29T00:36:25;7.17;;;3.00;;
19301;SDS011;9785;59.362;12.152;2023-07-29T00:38:54;11.30;;;3.47;;
19301;SDS011;9785;59.362;12.152;2023-07-29T00:41:23;7.83;;;3.20;;
19301;SDS011;9785;59.362;12.152;2023-07-29T00:43:53;8.30;;;3.10;;
19301;SDS011;9785;59.362;12.152;2023-07-29T00:46:21;4.03;;;3.13;;
19301;SDS011;9785;59.362;12.152;2023-07-29T00:48:50;9.27;;;3.80;;
19301;SDS011;9785;59.362;12.152;2023-07-29T00:51:20;9.90;;;3.50;;
19301;SDS011;9785;59.362;12.152;2023-07-29T00:53:49;6.17;;;3.10;;
19301;SDS011;9785;59.362;12.152;2023-07-29T00:56:17;8.97;;;3.43;;
19301;SDS011;9785;59.362;12.152;2023-07-29T00:58:46;6.07;;;3.00;;
19301;SDS011;9785;59.362;12.152;2023-07-29T01:01:15;10.23;;;3.63;;
19301;SDS011;9785;59.362;12.152;2023-07-29T01:03:43;6.50;;;3.40;;
19301;SDS011;9785;59.362;12.152;2023-07-29T01:06:14;8.20;;;3.43;;
19301;SDS011;9785;59.362;12.152;2023-07-29T01:08:48;9.97;;;3.33;;
19301;SDS011;9785;59.362;12.152;2023-07-29T01:11:22;3.97;;;2.87;;
19301;SDS011;9785;59.362;12.152;2023-07-29T01:14:01;7.23;;;3.20;;
19301;SDS011;9785;59.362;12.152;2023-07-29T01:16:34;4.17;;;2.60;;
19301;SDS011;9785;59.362;12.152;2023-07-29T01:19:06;11.03;;;3.40;;
19301;SDS011;9785;59.362;12.152;2023-07-29T01:21:37;6.33;;;2.83;;
19301;SDS011;9785;59.362;12.152;2023-07-29T01:24:07;3.60;;;2.50;;
19301;SDS011;9785;59.362;12.152;2023-07-29T01:26:36;4.30;;;2.70;;
19301;SDS011;9785;59.362;12.152;2023-07-29T01:29:05;3.73;;;2.70;;
19301;SDS011;9785;59.362;12.152;2023-07-29T01:31:34;4.47;;;2.80;;
19301;SDS011;9785;59.362;12.152;2023-07-29T01:34:06;4.20;;;2.63;;
19301;SDS011;9785;59.362;12.152;2023-07-29T01:36:37;4.30;;;2.77;;
19301;SDS011;9785;59.362;12.152;2023-07-29T01:39:08;4.67;;;2.73;;
19301;SDS011;9785;59.362;12.152;2023-07-29T01:41:38;4.17;;;2.73;;
19301;SDS011;9785;59.362;12.152;2023-07-29T01:44:07;6.07;;;2.90;;
19301;SDS011;9785;59.362;12.152;2023-07-29T01:46:37;3.30;;;2.83;;
19301;SDS011;9785;59.362;12.152;2023-07-29T01:49:06;4.93;;;2.90;;
19301;SDS011;9785;59.362;12.152;2023-07-29T01:51:35;5.87;;;2.77;;
19301;SDS011;9785;59.362;12.152;2023-07-29T01:54:03;7.00;;;2.97;;
19301;SDS011;9785;59.362;12.152;2023-07-29T01:56:33;3.90;;;2.80;;
19301;SDS011;9785;59.362;12.152;2023-07-29T01:59:02;5.00;;;2.70;;
19301;SDS011;9785;59.362;12.152;2023-07-29T02:01:31;4.40;;;2.60;;
19301;SDS011;9785;59.362;12.152;2023-07-29T02:03:59;7.23;;;2.47;;
19301;SDS011;9785;59.362;12.152;2023-07-29T02:06:28;4.63;;;2.70;;
19301;SDS011;9785;59.362;12.152;2023-07-29T02:08:57;3.47;;;2.60;;
19301;SDS011;9785;59.362;12.152;2023-07-29T02:11:25;4.03;;;2.43;;
19301;SDS011;9785;59.362;12.152;2023-07-29T02:13:56;6.50;;;2.60;;
19301;SDS011;9785;59.362;12.152;2023-07-29T02:16:24;3.80;;;2.80;;
19301;SDS011;9785;59.362;12.152;2023-07-29T02:18:53;4.20;;;2.60;;
19301;SDS011;9785;59.362;12.152;2023-07-29T02:21:22;3.90;;;2.77;;
19301;SDS011;9785;59.362;12.152;2023-07-29T02:23:50;2.50;;;2.30;;
19301;SDS011;9785;59.362;12.152;2023-07-29T02:26:19;3.63;;;2.40;;
19301;SDS011;9785;59.362;12.152;2023-07-29T02:28:48;2.20;;;2.10;;
19301;SDS011;9785;59.362;12.152;2023-07-29T02:31:19;7.70;;;2.73;;
19301;SDS011;9785;59.362;12.152;2023-07-29T02:33:48;2.97;;;2.73;;
19301;SDS011;9785;59.362;12.152;2023-07-29T02:36:17;3.80;;;2.60;;
19301;SDS011;9785;59.362;12.152;2023-07-29T02:38:46;6.93;;;2.77;;
19301;SDS011;9785;59.362;12.152;2023-07-29T02:41:14;3.70;;;2.47;;
19301;SDS011;9785;59.362;12.152;2023-07-29T02:43:43;3.23;;;2.57;;
19301;SDS011;9785;59.362;12.152;2023-07-29T02:46:17;2.80;;;2.60;;
19301;SDS011;9785;59.362;12.152;2023-07-29T02:48:46;4.17;;;3.10;;
19301;SDS011;9785;59.362;12.152;2023-07-29T02:51:14;5.93;;;2.80;;
19301;SDS011;9785;59.362;12.152;2023-07-29T02:53:43;3.17;;;2.50;;
19301;SDS011;9785;59.362;12.152;2023-07-29T02:56:12;3.23;;;2.80;;
19301;SDS011;9785;59.362;12.152;2023-07-29T02:58:40;3.80;;;2.80;;
19301;SDS011;9785;59.362;12.152;2023-07-29T03:01:09;4.87;;;3.00;;
19301;SDS011;9785;59.362;12.152;2023-07-29T03:03:39;3.27;;;2.80;;
19301;SDS011;9785;59.362;12.152;2023-07-29T03:06:10;3.90;;;2.50;;
19301;SDS011;9785;59.362;12.152;2023-07-29T03:08:38;2.80;;;2.60;;
19301;SDS011;9785;59.362;12.152;2023-07-29T03:11:08;4.43;;;2.30;;
19301;SDS011;9785;59.362;12.152;2023-07-29T03:13:37;7.20;;;3.17;;
19301;SDS011;9785;59.362;12.152;2023-07-29T03:16:06;5.67;;;2.50;;
19301;SDS011;9785;59.362;12.152;2023-07-29T03:18:35;5.67;;;2.50;;
19301;SDS011;9785;59.362;12.152;2023-07-29T03:21:05;5.07;;;2.80;;
19301;SDS011;9785;59.362;12.152;2023-07-29T03:23:34;4.73;;;2.77;;
19301;SDS011;9785;59.362;12.152;2023-07-29T03:26:03;3.80;;;2.50;;
19301;SDS011;9785;59.362;12.152;2023-07-29T03:28:37;5.80;;;2.40;;
19301;SDS011;9785;59.362;12.152;2023-07-29T03:31:06;3.23;;;2.40;;
19301;SDS011;9785;59.362;12.152;2023-07-29T03:33:35;3.00;;;2.70;;
19301;SDS011;9785;59.362;12.152;2023-07-29T03:36:05;5.77;;;2.60;;
19301;SDS011;9785;59.362;12.152;2023-07-29T03:38:34;2.63;;;2.23;;
19301;SDS011;9785;59.362;12.152;2023-07-29T03:41:07;4.20;;;2.30;;
19301;SDS011;9785;59.362;12.152;2023-07-29T03:43:36;3.10;;;2.20;;
19301;SDS011;9785;59.362;12.152;2023-07-29T03:46:04;2.83;;;2.40;;
19301;SDS011;9785;59.362;12.152;2023-07-29T03:48:37;3.43;;;2.30;;
19301;SDS011;9785;59.362;12.152;2023-07-29T03:51:07;2.60;;;2.40;;
19301;SDS011;9785;59.362;12.152;2023-07-29T03:53:36;4.00;;;2.77;;
19301;SDS011;9785;59.362;12.152;2023-07-29T03:56:04;2.50;;;2.30;;
19301;SDS011;9785;59.362;12.152;2023-07-29T03:58:33;5.73;;;2.20;;
19301;SDS011;9785;59.362;12.152;2023-07-29T04:01:01;2.43;;;2.17;;
19301;SDS011;9785;59.362;12.152;2023-07-29T04:03:31;2.70;;;2.50;;
19301;SDS011;9785;59.362;12.152;2023-07-29T04:06:00;6.20;;;2.70;;
19301;SDS011;9785;59.362;12.152;2023-07-29T04:08:30;5.67;;;2.80;;
19301;SDS011;9785;59.362;12.152;2023-07-29T04:10:59;5.93;;;2.70;;
19301;SDS011;9785;59.362;12.152;2023-07-29T04:13:27;4.03;;;2.40;;
19301;SDS011;9785;59.362;12.152;2023-07-29T04:15:56;4.27;;;3.00;;
19301;SDS011;9785;59.362;12.152;2023-07-29T04:18:27;8.13;;;3.27;;
19301;SDS011;9785;59.362;12.152;2023-07-29T04:20:55;6.20;;;3.00;;
19301;SDS011;9785;59.362;12.152;2023-07-29T04:23:24;3.60;;;3.07;;
19301;SDS011;9785;59.362;12.152;2023-07-29T04:25:54;5.17;;;2.80;;
19301;SDS011;9785;59.362;12.152;2023-07-29T04:28:23;3.70;;;2.90;;
19301;SDS011;9785;59.362;12.152;2023-07-29T04:30:51;4.10;;;2.60;;
19301;SDS011;9785;59.362;12.152;2023-07-29T04:33:21;3.10;;;2.87;;
19301;SDS011;9785;59.362;12.152;2023-07-29T04:35:50;6.00;;;2.90;;
19301;SDS011;9785;59.362;12.152;2023-07-29T04:38:18;5.80;;;2.93;;
19301;SDS011;9785;59.362;12.152;2023-07-29T04:40:48;5.10;;;3.10;;
19301;SDS011;9785;59.362;12.152;2023-07-29T04:43:18;6.93;;;3.50;;
19301;SDS011;9785;59.362;12.152;2023-07-29T04:45:47;8.80;;;3.57;;
19301;SDS011;9785;59.362;12.152;2023-07-29T04:48:16;10.17;;;3.70;;
19301;SDS011;9785;59.362;12.152;2023-07-29T04:50:44;9.80;;;3.77;;
19301;SDS011;9785;59.362;12.152;2023-07-29T04:53:13;17.70;;;3.60;;
19301;SDS011;9785;59.362;12.152;2023-07-29T04:55:42;8.23;;;3.57;;
19301;SDS011;9785;59.362;12.152;2023-07-29T04:58:10;10.40;;;3.90;;
19301;SDS011;9785;59.362;12.152;2023-07-29T05:00:40;12.80;;;3.43;;
19301;SDS011;9785;59.362;12.152;2023-07-29T05:03:09;7.60;;;3.40;;
19301;SDS011;9785;59.362;12.152;2023-07-29T05:05:37;9.47;;;3.40;;
19301;SDS011;9785;59.362;12.152;2023-07-29T05:08:06;7.93;;;3.80;;
19301;SDS011;9785;59.362;12.152;2023-07-29T05:10:35;9.63;;;3.30;;
19301;SDS011;9785;59.362;12.152;2023-07-29T05:13:03;8.17;;;3.70;;
19301;SDS011;9785;59.362;12.152;2023-07-29T05:15:32;9.50;;;3.53;;
19301;SDS011;9785;59.362;12.152;2023-07-29T05:18:02;6.73;;;3.40;;
19301;SDS011;9785;59.362;12.152;2023-07-29T05:20:30;7.97;;;3.30;;
19301;SDS011;9785;59.362;12.152;2023-07-29T05:22:59;9.17;;;3.10;;
19301;SDS011;9785;59.362;12.152;2023-07-29T05:25:28;8.63;;;3.20;;
19301;SDS011;9785;59.362;12.152;2023-07-29T05:27:57;3.67;;;2.97;;
19301;SDS011;9785;59.362;12.152;2023-07-29T05:30:25;7.93;;;2.83;;
19301;SDS011;9785;59.362;12.152;2023-07-29T05:32:57;8.10;;;3.20;;
19301;SDS011;9785;59.362;12.152;2023-07-29T05:35:27;5.20;;;3.03;;
19301;SDS011;9785;59.362;12.152;2023-07-29T05:37:56;5.20;;;2.93;;
19301;SDS011;9785;59.362;12.152;2023-07-29T05:40:24;14.57;;;3.50;;
19301;SDS011;9785;59.362;12.152;2023-07-29T05:42:53;8.80;;;3.00;;
19301;SDS011;9785;59.362;12.152;2023-07-29T05:45:21;6.10;;;3.07;;
19301;SDS011;9785;59.362;12.152;2023-07-29T05:47:50;7.17;;;2.80;;
19301;SDS011;9785;59.362;12.152;2023-07-29T05:50:18;12.33;;;3.33;;
19301;SDS011;9785;59.362;12.152;2023-07-29T05:52:48;6.63;;;3.00;;
19301;SDS011;9785;59.362;12.152;2023-07-29T05:55:17;5.60;;;2.83;;
19301;SDS011;9785;59.362;12.152;2023-07-29T05:57:46;6.00;;;2.77;;
19301;SDS011;9785;59.362;12.152;2023-07-29T06:00:14;4.40;;;3.00;;
19301;SDS011;9785;59.362;12.152;2023-07-29T06:02:45;8.57;;;3.13;;
19301;SDS011;9785;59.362;12.152;2023-07-29T06:05:14;6.50;;;3.00;;
19301;SDS011;9785;59.362;12.152;2023-07-29T06:07:43;5.27;;;2.93;;
19301;SDS011;9785;59.362;12.152;2023-07-29T06:10:15;4.50;;;3.00;;
19301;SDS011;9785;59.362;12.152;2023-07-29T06:12:46;8.13;;;2.83;;
19301;SDS011;9785;59.362;12.152;2023-07-29T06:15:14;5.77;;;3.30;;
19301;SDS011;9785;59.362;12.152;2023-07-29T06:17:43;6.80;;;2.73;;
19301;SDS011;9785;59.362;12.152;2023-07-29T06:20:12;7.17;;;3.10;;
19301;SDS011;9785;59.362;12.152;2023-07-29T06:22:40;7.83;;;2.80;;
19301;SDS011;9785;59.362;12.152;2023-07-29T06:25:09;5.83;;;3.80;;
19301;SDS011;9785;59.362;12.152;2023-07-29T06:27:39;4.63;;;2.93;;
19301;SDS011;9785;59.362;12.152;2023-07-29T06:30:09;5.93;;;2.90;;
19301;SDS011;9785;59.362;12.152;2023-07-29T06:32:38;5.27;;;2.80;;
19301;SDS011;9785;59.362;12.152;2023-07-29T06:35:07;7.10;;;2.70;;
19301;SDS011;9785;59.362;12.152;2023-07-29T06:37:35;5.30;;;2.80;;
19301;SDS011;9785;59.362;12.152;2023-07-29T06:40:04;3.87;;;2.87;;
19301;SDS011;9785;59.362;12.152;2023-07-29T06:42:33;5.27;;;3.00;;
19301;SDS011;9785;59.362;12.152;2023-07-29T06:45:05;3.73;;;2.60;;
19301;SDS011;9785;59.362;12.152;2023-07-29T06:47:34;5.07;;;2.87;;
19301;SDS011;9785;59.362;12.152;2023-07-29T06:50:03;5.53;;;2.60;;
19301;SDS011;9785;59.362;12.152;2023-07-29T06:52:32;9.00;;;2.57;;
19301;SDS011;9785;59.362;12.152;2023-07-29T06:55:00;3.00;;;2.40;;
19301;SDS011;9785;59.362;12.152;2023-07-29T06:57:29;6.43;;;2.50;;
19301;SDS011;9785;59.362;12.152;2023-07-29T06:59:57;9.77;;;3.13;;
19301;SDS011;9785;59.362;12.152;2023-07-29T07:02:28;5.13;;;2.77;;
19301;SDS011;9785;59.362;12.152;2023-07-29T07:04:57;3.83;;;2.80;;
19301;SDS011;9785;59.362;12.152;2023-07-29T07:07:25;6.30;;;2.73;;
19301;SDS011;9785;59.362;12.152;2023-07-29T07:09:54;5.90;;;2.90;;
19301;SDS011;9785;59.362;12.152;2023-07-29T07:12:26;6.57;;;2.50;;
19301;SDS011;9785;59.362;12.152;2023-07-29T07:14:55;5.10;;;2.60;;
19301;SDS011;9785;59.362;12.152;2023-07-29T07:17:23;4.47;;;2.37;;
19301;SDS011;9785;59.362;12.152;2023-07-29T07:19:53;6.50;;;2.60;;
19301;SDS011;9785;59.362;12.152;2023-07-29T07:22:23;6.67;;;3.00;;
19301;SDS011;9785;59.362;12.152;2023-07-29T07:24:52;6.93;;;2.80;;
19301;SDS011;9785;59.362;12.152;2023-07-29T07:27:20;4.43;;;2.53;;
19301;SDS011;9785;59.362;12.152;2023-07-29T07:29:51;3.13;;;2.67;;
19301;SDS011;9785;59.362;12.152;2023-07-29T07:32:20;6.53;;;2.60;;
19301;SDS011;9785;59.362;12.152;2023-07-29T07:34:49;4.83;;;2.50;;
19301;SDS011;9785;59.362;12.152;2023-07-29T07:37:19;6.33;;;2.70;;
19301;SDS011;9785;59.362;12.152;2023-07-29T07:39:47;3.07;;;2.30;;
19301;SDS011;9785;59.362;12.152;2023-07-29T07:42:16;4.00;;;2.40;;
19301;SDS011;9785;59.362;12.152;2023-07-29T07:44:45;6.03;;;2.87;;
19301;SDS011;9785;59.362;12.152;2023-07-29T07:47:13;5.37;;;3.03;;
19301;SDS011;9785;59.362;12.152;2023-07-29T07:49:42;4.33;;;2.43;;
19301;SDS011;9785;59.362;12.152;2023-07-29T07:52:11;2.70;;;2.40;;
19301;SDS011;9785;59.362;12.152;2023-07-29T07:54:41;3.60;;;2.30;;
19301;SDS011;9785;59.362;12.152;2023-07-29T07:57:09;6.82;;;3.08;;
19301;SDS011;9785;59.362;12.152;2023-07-29T07:59:38;3.50;;;2.27;;
19301;SDS011;9785;59.362;12.152;2023-07-29T08:02:06;2.87;;;2.10;;
19301;SDS011;9785;59.362;12.152;2023-07-29T08:04:35;4.57;;;2.20;;
19301;SDS011;9785;59.362;12.152;2023-07-29T08:07:04;4.53;;;2.60;;
19301;SDS011;9785;59.362;12.152;2023-07-29T08:09:33;4.63;;;2.75;;
19301;SDS011;9785;59.362;12.152;2023-07-29T08:12:03;3.97;;;2.60;;
19301;SDS011;9785;59.362;12.152;2023-07-29T08:14:31;3.03;;;2.50;;
19301;SDS011;9785;59.362;12.152;2023-07-29T08:17:00;4.50;;;2.93;;
19301;SDS011;9785;59.362;12.152;2023-07-29T08:19:30;4.03;;;2.20;;
19301;SDS011;9785;59.362;12.152;2023-07-29T08:22:02;5.63;;;2.40;;
19301;SDS011;9785;59.362;12.152;2023-07-29T08:24:30;5.40;;;2.57;;
19301;SDS011;9785;59.362;12.152;2023-07-29T08:27:00;4.93;;;2.33;;
19301;SDS011;9785;59.362;12.152;2023-07-29T08:29:30;3.50;;;2.10;;
19301;SDS011;9785;59.362;12.152;2023-07-29T08:31:58;3.67;;;2.17;;
19301;SDS011;9785;59.362;12.152;2023-07-29T08:34:27;2.20;;;2.03;;
19301;SDS011;9785;59.362;12.152;2023-07-29T08:36:56;4.23;;;2.40;;
19301;SDS011;9785;59.362;12.152;2023-07-29T08:39:26;2.63;;;2.20;;
19301;SDS011;9785;59.362;12.152;2023-07-29T08:41:56;1.90;;;1.80;;
19301;SDS011;9785;59.362;12.152;2023-07-29T08:44:26;2.53;;;2.00;;
19301;SDS011;9785;59.362;12.152;2023-07-29T08:46:57;2.30;;;2.10;;
19301;SDS011;9785;59.362;12.152;2023-07-29T08:49:28;1.90;;;1.80;;
19301;SDS011;9785;59.362;12.152;2023-07-29T08:51:57;3.30;;;2.00;;
19301;SDS011;9785;59.362;12.152;2023-07-29T08:54:25;2.10;;;1.90;;
19301;SDS011;9785;59.362;12.152;2023-07-29T08:56:55;3.73;;;2.00;;
19301;SDS011;9785;59.362;12.152;2023-07-29T08:59:24;2.43;;;2.20;;
19301;SDS011;9785;59.362;12.152;2023-07-29T09:01:54;2.42;;;2.22;;
19301;SDS011;9785;59.362;12.152;2023-07-29T09:04:25;2.43;;;1.80;;
19301;SDS011;9785;59.362;12.152;2023-07-29T09:06:55;2.50;;;2.10;;
19301;SDS011;9785;59.362;12.152;2023-07-29T09:09:25;3.03;;;1.73;;
19301;SDS011;9785;59.362;12.152;2023-07-29T09:11:56;2.43;;;1.57;;
19301;SDS011;9785;59.362;12.152;2023-07-29T09:14:25;2.77;;;1.90;;
19301;SDS011;9785;59.362;12.152;2023-07-29T09:16:55;2.17;;;1.97;;
19301;SDS011;9785;59.362;12.152;2023-07-29T09:19:26;2.50;;;1.77;;
19301;SDS011;9785;59.362;12.152;2023-07-29T09:21:55;4.70;;;1.90;;
19301;SDS011;9785;59.362;12.152;2023-07-29T09:24:23;1.87;;;1.77;;
19301;SDS011;9785;59.362;12.152;2023-07-29T09:26:56;2.07;;;1.90;;
19301;SDS011;9785;59.362;12.152;2023-07-29T09:29:24;3.07;;;2.00;;
19301;SDS011;9785;59.362;12.152;2023-07-29T09:32:06;2.47;;;1.93;;
19301;SDS011;9785;59.362;12.152;2023-07-29T09:34:47;2.50;;;2.10;;
19301;SDS011;9785;59.362;12.152;2023-07-29T09:37:16;3.63;;;2.00;;
19301;SDS011;9785;59.362;12.152;2023-07-29T09:39:45;2.30;;;2.10;;
19301;SDS011;9785;59.362;12.152;2023-07-29T09:42:17;2.30;;;2.10;;
19301;SDS011;9785;59.362;12.152;2023-07-29T09:44:48;1.93;;;1.83;;
19301;SDS011;9785;59.362;12.152;2023-07-29T09:47:20;1.90;;;1.80;;
19301;SDS011;9785;59.362;12.152;2023-07-29T09:49:50;3.73;;;2.10;;
19301;SDS011;9785;59.362;12.152;2023-07-29T09:52:20;1.98;;;1.88;;
19301;SDS011;9785;59.362;12.152;2023-07-29T09:54:50;2.20;;;2.00;;
19301;SDS011;9785;59.362;12.152;2023-07-29T09:57:19;3.03;;;2.07;;
19301;SDS011;9785;59.362;12.152;2023-07-29T09:59:53;4.03;;;2.17;;
19301;SDS011;9785;59.362;12.152;2023-07-29T10:02:22;2.22;;;2.03;;
19301;SDS011;9785;59.362;12.152;2023-07-29T10:04:53;2.57;;;1.97;;
19301;SDS011;9785;59.362;12.152;2023-07-29T10:07:22;1.98;;;1.80;;
19301;SDS011;9785;59.362;12.152;2023-07-29T10:09:52;2.08;;;1.80;;
19301;SDS011;9785;59.362;12.152;2023-07-29T10:12:21;2.15;;;1.95;;
19301;SDS011;9785;59.362;12.152;2023-07-29T10:14:50;1.83;;;1.73;;
19301;SDS011;9785;59.362;12.152;2023-07-29T10:17:19;1.98;;;1.88;;
19301;SDS011;9785;59.362;12.152;2023-07-29T10:19:48;3.42;;;1.98;;
19301;SDS011;9785;59.362;12.152;2023-07-29T10:22:18;4.28;;;1.90;;
19301;SDS011;9785;59.362;12.152;2023-07-29T10:24:48;1.65;;;1.55;;
19301;SDS011;9785;59.362;12.152;2023-07-29T10:27:18;2.33;;;2.22;;
19301;SDS011;9785;59.362;12.152;2023-07-29T10:29:47;2.00;;;1.90;;
19301;SDS011;9785;59.362;12.152;2023-07-29T10:32:16;2.42;;;1.90;;
19301;SDS011;9785;59.362;12.152;2023-07-29T10:34:45;2.10;;;1.92;;
19301;SDS011;9785;59.362;12.152;2023-07-29T10:37:14;3.05;;;2.10;;
19301;SDS011;9785;59.362;12.152;2023-07-29T10:39:52;2.70;;;1.75;;
19301;SDS011;9785;59.362;12.152;2023-07-29T10:42:21;3.55;;;1.90;;
19301;SDS011;9785;59.362;12.152;2023-07-29T10:44:50;2.15;;;1.77;;
19301;SDS011;9785;59.362;12.152;2023-07-29T10:47:23;1.73;;;1.63;;
19301;SDS011;9785;59.362;12.152;2023-07-29T10:49:52;2.67;;;1.80;;
19301;SDS011;9785;59.362;12.152;2023-07-29T10:52:28;2.00;;;1.83;;
19301;SDS011;9785;59.362;12.152;2023-07-29T10:54:59;2.40;;;1.70;;
19301;SDS011;9785;59.362;12.152;2023-07-29T10:57:31;2.33;;;2.10;;
19301;SDS011;9785;59.362;12.152;2023-07-29T11:00:02;1.95;;;1.85;;
19301;SDS011;9785;59.362;12.152;2023-07-29T11:02:32;2.20;;;2.00;;
19301;SDS011;9785;59.362;12.152;2023-07-29T11:05:04;2.17;;;1.80;;
19301;SDS011;9785;59.362;12.152;2023-07-29T11:07:42;1.77;;;1.67;;
19301;SDS011;9785;59.362;12.152;2023-07-29T11:10:12;2.92;;;2.05;;
19301;SDS011;9785;59.362;12.152;2023-07-29T11:12:42;1.80;;;1.70;;
19301;SDS011;9785;59.362;12.152;2023-07-29T11:15:13;1.92;;;1.70;;
19301;SDS011;9785;59.362;12.152;2023-07-29T11:17:43;3.78;;;1.77;;
19301;SDS011;9785;59.362;12.152;2023-07-29T11:20:12;2.35;;;2.10;;
19301;SDS011;9785;59.362;12.152;2023-07-29T11:22:41;1.92;;;1.83;;
19301;SDS011;9785;59.362;12.152;2023-07-29T11:25:10;2.30;;;2.10;;
19301;SDS011;9785;59.362;12.152;2023-07-29T11:27:40;1.98;;;1.88;;
19301;SDS011;9785;59.362;12.152;2023-07-29T11:30:10;2.38;;;1.85;;
19301;SDS011;9785;59.362;12.152;2023-07-29T11:32:39;2.55;;;1.75;;
19301;SDS011;9785;59.362;12.152;2023-07-29T11:35:09;2.13;;;1.92;;
19301;SDS011;9785;59.362;12.152;2023-07-29T11:37:39;2.10;;;2.00;;
19301;SDS011;9785;59.362;12.152;2023-07-29T11:40:08;2.10;;;1.80;;
19301;SDS011;9785;59.362;12.152;2023-07-29T11:42:37;2.70;;;1.83;;
19301;SDS011;9785;59.362;12.152;2023-07-29T11:45:08;1.80;;;1.70;;
19301;SDS011;9785;59.362;12.152;2023-07-29T11:47:37;2.22;;;2.03;;
19301;SDS011;9785;59.362;12.152;2023-07-29T11:50:08;2.10;;;2.00;;
19301;SDS011;9785;59.362;12.152;2023-07-29T11:52:37;2.03;;;1.80;;
19301;SDS011;9785;59.362;12.152;2023-07-29T11:55:06;1.88;;;1.77;;
19301;SDS011;9785;59.362;12.152;2023-07-29T11:57:35;2.08;;;1.88;;
19301;SDS011;9785;59.362;12.152;2023-07-29T12:00:08;2.10;;;2.00;;
19301;SDS011;9785;59.362;12.152;2023-07-29T12:02:40;2.78;;;2.10;;
19301;SDS011;9785;59.362;12.152;2023-07-29T12:05:11;2.25;;;2.05;;
19301;SDS011;9785;59.362;12.152;2023-07-29T12:07:41;1.55;;;1.50;;
19301;SDS011;9785;59.362;12.152;2023-07-29T12:10:10;2.08;;;1.98;;
19301;SDS011;9785;59.362;12.152;2023-07-29T12:12:42;3.70;;;1.80;;
19301;SDS011;9785;59.362;12.152;2023-07-29T12:15:21;2.17;;;2.00;;
19301;SDS011;9785;59.362;12.152;2023-07-29T12:17:52;1.98;;;1.88;;
19301;SDS011;9785;59.362;12.152;2023-07-29T12:20:23;1.88;;;1.77;;
19301;SDS011;9785;59.362;12.152;2023-07-29T12:22:52;2.05;;;1.90;;
19301;SDS011;9785;59.362;12.152;2023-07-29T12:25:20;2.00;;;1.90;;
19301;SDS011;9785;59.362;12.152;2023-07-29T12:27:50;1.80;;;1.70;;
19301;SDS011;9785;59.362;12.152;2023-07-29T12:30:21;5.07;;;1.65;;
19301;SDS011;9785;59.362;12.152;2023-07-29T12:32:51;1.92;;;1.83;;
19301;SDS011;9785;59.362;12.152;2023-07-29T12:35:20;4.07;;;1.85;;
19301;SDS011;9785;59.362;12.152;2023-07-29T12:37:57;2.15;;;1.60;;
19301;SDS011;9785;59.362;12.152;2023-07-29T12:40:26;1.92;;;1.70;;
19301;SDS011;9785;59.362;12.152;2023-07-29T12:42:55;2.67;;;1.90;;
19301;SDS011;9785;59.362;12.152;2023-07-29T12:45:25;1.67;;;1.67;;
19301;SDS011;9785;59.362;12.152;2023-07-29T12:47:55;1.90;;;1.80;;
19301;SDS011;9785;59.362;12.152;2023-07-29T12:50:24;2.40;;;2.08;;
19301;SDS011;9785;59.362;12.152;2023-07-29T12:52:52;1.75;;;1.65;;
19301;SDS011;9785;59.362;12.152;2023-07-29T12:55:21;2.25;;;2.03;;
19301;SDS011;9785;59.362;12.152;2023-07-29T12:57:50;2.03;;;1.92;;
19301;SDS011;9785;59.362;12.152;2023-07-29T13:00:19;2.10;;;1.90;;
19301;SDS011;9785;59.362;12.152;2023-07-29T13:02:49;1.75;;;1.65;;
19301;SDS011;9785;59.362;12.152;2023-07-29T13:05:17;2.00;;;1.90;;
19301;SDS011;9785;59.362;12.152;2023-07-29T13:07:46;2.88;;;1.90;;
19301;SDS011;9785;59.362;12.152;2023-07-29T13:10:15;3.53;;;2.00;;
19301;SDS011;9785;59.362;12.152;2023-07-29T13:12:43;2.72;;;1.80;;
19301;SDS011;9785;59.362;12.152;2023-07-29T13:15:12;3.35;;;2.15;;
19301;SDS011;9785;59.362;12.152;2023-07-29T13:17:40;2.10;;;2.00;;
19301;SDS011;9785;59.362;12.152;2023-07-29T13:20:10;2.20;;;2.10;;
19301;SDS011;9785;59.362;12.152;2023-07-29T13:22:39;3.63;;;1.88;;
19301;SDS011;9785;59.362;12.152;2023-07-29T13:25:08;2.13;;;2.03;;
19301;SDS011;9785;59.362;12.152;2023-07-29T13:27:37;3.78;;;2.10;;
19301;SDS011;9785;59.362;12.152;2023-07-29T13:30:06;2.10;;;1.98;;
19301;SDS011;9785;59.362;12.152;2023-07-29T13:32:35;2.20;;;2.10;;
19301;SDS011;9785;59.362;12.152;2023-07-29T13:35:04;3.35;;;2.20;;
19301;SDS011;9785;59.362;12.152;2023-07-29T13:37:34;2.17;;;2.08;;
19301;SDS011;9785;59.362;12.152;2023-07-29T13:40:03;2.22;;;2.03;;
19301;SDS011;9785;59.362;12.152;2023-07-29T13:42:32;2.38;;;2.15;;
19301;SDS011;9785;59.362;12.152;2023-07-29T13:45:01;2.20;;;2.10;;
19301;SDS011;9785;59.362;12.152;2023-07-29T13:47:30;2.53;;;2.22;;
19301;SDS011;9785;59.362;12.152;2023-07-29T13:49:59;3.65;;;2.30;;
19301;SDS011;9785;59.362;12.152;2023-07-29T13:52:27;2.70;;;2.50;;
19301;SDS011;9785;59.362;12.152;2023-07-29T13:54:58;4.30;;;2.35;;
19301;SDS011;9785;59.362;12.152;2023-07-29T13:57:27;2.47;;;2.28;;
19301;SDS011;9785;59.362;12.152;2023-07-29T13:59:56;3.97;;;2.92;;
19301;SDS011;9785;59.362;12.152;2023-07-29T14:02:24;2.97;;;2.65;;
19301;SDS011;9785;59.362;12.152;2023-07-29T14:04:53;2.80;;;2.60;;
19301;SDS011;9785;59.362;12.152;2023-07-29T14:07:22;4.45;;;2.67;;
19301;SDS011;9785;59.362;12.152;2023-07-29T14:09:51;2.35;;;2.15;;
19301;SDS011;9785;59.362;12.152;2023-07-29T14:12:21;3.63;;;2.20;;
19301;SDS011;9785;59.362;12.152;2023-07-29T14:14:50;4.32;;;2.33;;
19301;SDS011;9785;59.362;12.152;2023-07-29T14:17:18;2.58;;;2.40;;
19301;SDS011;9785;59.362;12.152;2023-07-29T14:19:47;2.20;;;2.10;;
19301;SDS011;9785;59.362;12.152;2023-07-29T14:22:15;2.47;;;2.28;;
19301;SDS011;9785;59.362;12.152;2023-07-29T14:24:44;2.30;;;2.20;;
19301;SDS011;9785;59.362;12.152;2023-07-29T14:27:13;2.78;;;2.28;;
19301;SDS011;9785;59.362;12.152;2023-07-29T14:29:44;3.60;;;2.90;;
19301;SDS011;9785;59.362;12.152;2023-07-29T14:32:12;4.97;;;2.50;;
19301;SDS011;9785;59.362;12.152;2023-07-29T14:34:41;3.80;;;2.30;;
19301;SDS011;9785;59.362;12.152;2023-07-29T14:37:09;2.47;;;2.38;;
19301;SDS011;9785;59.362;12.152;2023-07-29T14:39:38;2.45;;;2.35;;
19301;SDS011;9785;59.362;12.152;2023-07-29T14:42:07;2.25;;;2.15;;
19301;SDS011;9785;59.362;12.152;2023-07-29T14:44:35;2.80;;;2.22;;
19301;SDS011;9785;59.362;12.152;2023-07-29T14:47:05;2.38;;;2.28;;
19301;SDS011;9785;59.362;12.152;2023-07-29T14:49:34;2.75;;;2.33;;
19301;SDS011;9785;59.362;12.152;2023-07-29T14:52:03;2.33;;;2.13;;
19301;SDS011;9785;59.362;12.152;2023-07-29T14:54:31;2.03;;;1.92;;
19301;SDS011;9785;59.362;12.152;2023-07-29T14:57:00;2.78;;;2.20;;
19301;SDS011;9785;59.362;12.152;2023-07-29T14:59:29;3.80;;;1.92;;
19301;SDS011;9785;59.362;12.152;2023-07-29T15:01:57;2.25;;;2.03;;